Time;durP1;ratioP1;P1;durP2;ratioP2;P2;SDS_P1;SDS_P2;PMS_P1;PMS_P2;Temp;Humidity;BMP_temperature;BMP_pressure;BME280_temperature;BME280_humidity;BME280_pressure;Samples;Min_cycle;Max_cycle;Signal;HPM_P1;HPM_P2
2023/11/04 00:02:18;;;;;;;0.50;0.40;;;7.50;99.90;;;;;;5075688;28;20206;-82
2023/11/04 00:04:46;;;;;;;2.45;1.02;;;7.40;99.90;;;;;;5075196;28;20200;-82
2023/11/04 00:07:12;;;;;;;0.60;0.50;;;7.50;99.90;;;;;;5068914;28;20199;-83
2023/11/04 00:09:39;;;;;;;0.50;0.40;;;7.50;99.90;;;;;;5076175;28;20215;-82
2023/11/04 00:12:06;;;;;;;1.45;1.05;;;7.40;99.90;;;;;;5075819;28;20198;-83
2023/11/04 00:14:33;;;;;;;0.50;0.40;;;7.40;99.90;;;;;;5076092;28;20214;-83
2023/11/04 00:17:00;;;;;;;0.50;0.40;;;7.50;99.90;;;;;;5075245;28;20206;-82
2023/11/04 00:19:27;;;;;;;0.50;0.40;;;7.50;99.90;;;;;;5075500;28;20299;-81
2023/11/04 00:21:55;;;;;;;0.50;0.40;;;7.50;99.90;;;;;;5075805;28;20197;-82
2023/11/04 00:24:22;;;;;;;0.50;0.40;;;7.60;99.90;;;;;;5075673;28;20630;-83
2023/11/04 00:26:48;;;;;;;0.60;0.60;;;7.70;99.90;;;;;;5075403;28;20289;-80
2023/11/04 00:29:15;;;;;;;0.88;0.88;;;7.70;99.90;;;;;;5076618;28;20215;-82
2023/11/04 00:31:41;;;;;;;0.80;0.68;;;7.80;99.90;;;;;;5075360;28;20194;-81
2023/11/04 00:34:08;;;;;;;0.80;0.77;;;7.90;99.90;;;;;;5075303;28;20720;-82
2023/11/04 00:36:34;;;;;;;2.65;0.95;;;7.90;99.90;;;;;;5075335;28;20206;-82
2023/11/04 00:39:03;;;;;;;0.98;0.80;;;8.00;99.90;;;;;;5074330;28;20749;-82
2023/11/04 00:41:32;;;;;;;0.63;0.63;;;8.00;99.90;;;;;;5075419;28;20682;-82
2023/11/04 00:43:59;;;;;;;0.50;0.40;;;8.10;99.90;;;;;;5075270;28;20194;-83
2023/11/04 00:46:26;;;;;;;1.17;0.80;;;8.10;99.90;;;;;;5075626;28;20197;-83
2023/11/04 00:48:53;;;;;;;1.00;0.65;;;8.20;99.90;;;;;;5075425;28;20222;-82
2023/11/04 00:51:21;;;;;;;0.50;0.40;;;8.20;99.90;;;;;;5075605;28;20194;-82
2023/11/04 00:53:47;;;;;;;0.50;0.50;;;8.20;99.90;;;;;;5074901;28;20662;-82
2023/11/04 00:56:16;;;;;;;0.60;0.60;;;8.20;99.90;;;;;;5074843;28;20213;-83
2023/11/04 00:58:42;;;;;;;0.50;0.40;;;8.20;99.90;;;;;;5076049;28;20228;-82
2023/11/04 01:01:09;;;;;;;0.98;0.98;;;8.20;99.90;;;;;;5074573;28;20205;-82
2023/11/04 01:03:36;;;;;;;1.75;0.95;;;8.20;99.90;;;;;;5075757;28;20190;-82
2023/11/04 01:06:03;;;;;;;0.50;0.40;;;8.20;99.90;;;;;;5074912;28;20190;-82
2023/11/04 01:08:30;;;;;;;0.50;0.40;;;8.20;99.90;;;;;;5074783;28;20214;-82
2023/11/04 01:10:57;;;;;;;0.60;0.50;;;8.20;99.90;;;;;;5074326;28;20585;-83
2023/11/04 01:13:25;;;;;;;0.70;0.60;;;8.20;99.90;;;;;;5074735;28;20194;-82
2023/11/04 01:15:52;;;;;;;4.45;0.60;;;8.30;99.90;;;;;;5074797;28;20209;-82
2023/11/04 01:18:20;;;;;;;1.25;1.02;;;8.30;99.90;;;;;;5068006;28;20305;-82
2023/11/04 01:20:47;;;;;;;0.60;0.60;;;8.40;99.90;;;;;;5075327;28;20194;-82
2023/11/04 01:23:13;;;;;;;2.25;0.50;;;8.50;99.90;;;;;;5074849;28;20585;-82
2023/11/04 01:25:40;;;;;;;0.50;0.40;;;8.50;99.90;;;;;;5075092;28;20297;-82
2023/11/04 01:28:07;;;;;;;0.50;0.40;;;8.50;99.90;;;;;;5074875;28;20586;-82
2023/11/04 01:30:35;;;;;;;0.50;0.50;;;8.50;99.90;;;;;;5075096;28;20198;-82
2023/11/04 01:33:02;;;;;;;0.75;0.75;;;8.40;99.90;;;;;;5075473;28;20267;-82
2023/11/04 01:35:28;;;;;;;2.53;0.90;;;8.40;99.90;;;;;;5075147;28;20214;-82
2023/11/04 01:37:55;;;;;;;0.60;0.60;;;8.40;99.90;;;;;;5074962;28;20574;-81
2023/11/04 01:40:22;;;;;;;0.50;0.40;;;8.40;99.90;;;;;;5075976;28;20661;-82
2023/11/04 01:42:49;;;;;;;7.03;1.50;;;8.40;99.90;;;;;;5075718;28;20206;-82
2023/11/04 01:45:16;;;;;;;0.50;0.50;;;8.50;99.90;;;;;;5075162;28;20684;-82
2023/11/04 01:47:44;;;;;;;0.50;0.40;;;8.50;99.90;;;;;;5075693;28;20205;-82
2023/11/04 01:50:11;;;;;;;0.50;0.40;;;8.60;99.90;;;;;;5076137;28;20198;-82
2023/11/04 01:52:39;;;;;;;0.50;0.50;;;8.60;99.90;;;;;;5075128;28;20198;-82
2023/11/04 01:55:09;;;;;;;0.50;0.40;;;8.60;99.90;;;;;;5075926;28;20224;-82
2023/11/04 01:57:36;;;;;;;0.50;0.50;;;8.60;99.90;;;;;;5076151;28;20204;-82
2023/11/04 02:00:04;;;;;;;0.50;0.40;;;8.60;99.90;;;;;;5076331;28;20224;-81
2023/11/04 02:02:32;;;;;;;0.90;0.50;;;8.60;99.90;;;;;;5076001;28;20198;-83
2023/11/04 02:05:01;;;;;;;0.50;0.50;;;8.60;99.90;;;;;;5074853;28;20545;-81
2023/11/04 02:07:28;;;;;;;0.50;0.40;;;8.60;99.90;;;;;;5074912;28;20194;-82
2023/11/04 02:09:55;;;;;;;0.50;0.40;;;8.60;99.90;;;;;;5074587;28;20218;-82
2023/11/04 02:12:22;;;;;;;0.80;0.80;;;8.60;99.90;;;;;;5074646;28;20688;-82
2023/11/04 02:14:50;;;;;;;1.55;0.65;;;8.60;99.90;;;;;;5075330;28;20201;-81
2023/11/04 02:17:17;;;;;;;0.50;0.50;;;8.60;99.90;;;;;;5074997;28;20202;-83
2023/11/04 02:19:43;;;;;;;0.50;0.50;;;8.50;99.90;;;;;;5074895;28;20214;-82
2023/11/04 02:22:12;;;;;;;0.50;0.40;;;8.50;99.90;;;;;;5076527;28;20204;-82
2023/11/04 02:24:39;;;;;;;0.50;0.40;;;8.40;99.90;;;;;;5079045;28;20190;-81
2023/11/04 02:27:06;;;;;;;0.50;0.40;;;8.40;99.90;;;;;;5078600;28;20202;-82
2023/11/04 02:29:32;;;;;;;0.50;0.50;;;8.40;99.90;;;;;;5079451;28;20593;-82
2023/11/04 02:31:59;;;;;;;1.05;0.70;;;8.40;99.90;;;;;;5078787;28;20569;-82
2023/11/04 02:34:26;;;;;;;0.50;0.40;;;8.30;99.90;;;;;;5071019;28;20218;-83
2023/11/04 02:36:53;;;;;;;0.50;0.40;;;8.30;99.90;;;;;;5079431;28;20221;-82
2023/11/04 02:39:21;;;;;;;0.50;0.50;;;8.40;99.90;;;;;;5078015;28;20218;-83
2023/11/04 02:41:47;;;;;;;0.50;0.40;;;8.40;99.90;;;;;;5079333;28;20202;-82
2023/11/04 02:44:14;;;;;;;0.60;0.40;;;8.50;99.90;;;;;;5079373;28;20568;-82
2023/11/04 02:46:41;;;;;;;1.50;1.40;;;8.50;99.90;;;;;;5079503;28;20720;-83
2023/11/04 02:49:08;;;;;;;0.88;0.88;;;8.60;99.90;;;;;;5078625;28;20218;-83
2023/11/04 02:51:35;;;;;;;0.50;0.45;;;8.70;99.90;;;;;;5079903;28;20617;-83
2023/11/04 02:54:01;;;;;;;4.43;2.72;;;8.70;99.90;;;;;;5079207;28;20191;-81
2023/11/04 02:56:29;;;;;;;0.50;0.40;;;8.60;99.90;;;;;;5071217;28;20221;-82
2023/11/04 02:58:56;;;;;;;0.50;0.40;;;8.70;99.90;;;;;;5078893;28;20246;-82
2023/11/04 03:01:23;;;;;;;0.50;0.40;;;8.80;99.90;;;;;;5078618;28;20201;-83
2023/11/04 03:03:50;;;;;;;0.50;0.40;;;8.80;99.90;;;;;;5078617;28;20201;-82
2023/11/04 03:06:26;;;;;;;0.60;0.50;;;8.80;99.90;;;;;;5078124;28;20191;-82
2023/11/04 03:08:53;;;;;;;0.50;0.40;;;8.80;99.90;;;;;;5079811;28;20252;-82
2023/11/04 03:11:21;;;;;;;0.50;0.40;;;8.80;99.90;;;;;;5079874;28;20194;-83
2023/11/04 03:13:49;;;;;;;0.50;0.50;;;8.90;99.90;;;;;;5079968;28;20225;-82
2023/11/04 03:16:20;;;;;;;0.50;0.40;;;8.90;99.90;;;;;;5078346;28;20218;-82
2023/11/04 03:18:47;;;;;;;0.50;0.50;;;8.90;99.90;;;;;;5079849;28;20218;-82
2023/11/04 03:21:15;;;;;;;0.50;0.50;;;8.90;99.90;;;;;;5079067;28;20208;-82
2023/11/04 03:23:42;;;;;;;0.60;0.50;;;8.90;99.90;;;;;;5078170;28;20199;-82
2023/11/04 03:26:09;;;;;;;0.50;0.40;;;8.80;99.90;;;;;;5078117;28;20205;-82
2023/11/04 03:28:36;;;;;;;0.50;0.50;;;8.80;99.90;;;;;;5078956;28;20210;-82
2023/11/04 03:31:05;;;;;;;0.82;0.82;;;8.80;99.90;;;;;;5077887;28;20336;-83
2023/11/04 03:33:32;;;;;;;0.50;0.40;;;8.70;99.90;;;;;;5068588;28;20198;-83
2023/11/04 03:35:59;;;;;;;0.50;0.40;;;8.70;99.90;;;;;;5076372;28;20214;-82
2023/11/04 03:38:25;;;;;;;0.50;0.40;;;8.70;99.90;;;;;;5077648;28;20714;-82
2023/11/04 03:40:53;;;;;;;57.70;4.20;;;8.70;99.90;;;;;;5077427;28;20195;-82
2023/11/04 03:43:20;;;;;;;0.60;0.50;;;8.70;99.90;;;;;;5076956;28;20198;-82
2023/11/04 03:45:47;;;;;;;0.50;0.40;;;8.70;99.90;;;;;;5077165;28;20191;-82
2023/11/04 03:48:15;;;;;;;0.50;0.40;;;8.70;99.90;;;;;;5076196;28;20451;-82
2023/11/04 03:50:42;;;;;;;0.60;0.50;;;8.70;99.90;;;;;;5076911;28;20681;-80
2023/11/04 03:53:08;;;;;;;0.50;0.40;;;8.80;99.90;;;;;;5076798;28;20205;-82
2023/11/04 03:55:36;;;;;;;0.50;0.40;;;8.80;99.90;;;;;;5077359;28;20214;-81
2023/11/04 03:58:02;;;;;;;1.67;1.40;;;8.80;99.90;;;;;;5077104;28;20218;-81
2023/11/04 04:00:29;;;;;;;0.60;0.47;;;8.80;99.90;;;;;;5076824;28;20205;-83
2023/11/04 04:02:56;;;;;;;0.50;0.40;;;8.80;99.90;;;;;;5076031;28;20206;-83
2023/11/04 04:05:24;;;;;;;0.85;0.73;;;8.90;99.90;;;;;;5075239;28;20209;-82
2023/11/04 04:07:51;;;;;;;0.50;0.40;;;8.80;99.90;;;;;;5076200;28;20202;-83
2023/11/04 04:10:18;;;;;;;0.90;0.70;;;8.90;99.90;;;;;;5076405;28;20204;-83
2023/11/04 04:12:47;;;;;;;1.20;1.00;;;8.90;99.90;;;;;;5076283;28;20654;-81
2023/11/04 04:15:14;;;;;;;0.50;0.40;;;8.90;99.90;;;;;;5076794;28;20202;-83
2023/11/04 04:17:42;;;;;;;3.13;0.77;;;8.90;99.90;;;;;;5075682;28;20230;-82
2023/11/04 04:20:12;;;;;;;0.50;0.40;;;8.90;99.90;;;;;;5076689;28;20658;-83
2023/11/04 04:22:40;;;;;;;0.50;0.40;;;8.90;99.90;;;;;;5077089;28;20198;-83
2023/11/04 04:25:08;;;;;;;0.70;0.55;;;8.90;99.90;;;;;;5077251;28;20601;-83
2023/11/04 04:27:35;;;;;;;1.45;0.60;;;8.90;99.90;;;;;;5069685;28;20562;-82
2023/11/04 04:30:02;;;;;;;0.50;0.40;;;8.90;99.90;;;;;;5076766;28;20229;-83
2023/11/04 04:32:28;;;;;;;0.82;0.50;;;8.90;99.90;;;;;;5075426;28;20200;-83
2023/11/04 04:34:55;;;;;;;0.95;0.77;;;8.80;99.90;;;;;;5072929;28;20198;-82
2023/11/04 04:37:23;;;;;;;0.50;0.40;;;8.90;99.90;;;;;;5072266;28;20708;-80
2023/11/04 04:39:51;;;;;;;0.50;0.40;;;8.90;99.90;;;;;;5072502;28;20593;-82
2023/11/04 04:42:18;;;;;;;0.60;0.60;;;8.90;99.90;;;;;;5072838;28;20209;-83
2023/11/04 04:44:45;;;;;;;0.50;0.40;;;8.90;99.90;;;;;;5072051;28;20198;-83
2023/11/04 04:47:12;;;;;;;1.48;1.38;;;8.90;99.90;;;;;;5072576;28;20198;-81
2023/11/04 04:49:38;;;;;;;0.50;0.40;;;9.00;99.90;;;;;;5072275;28;20717;-80
2023/11/04 04:52:05;;;;;;;1.45;0.73;;;8.90;99.90;;;;;;5072412;28;20642;-82
2023/11/04 04:54:32;;;;;;;0.50;0.40;;;8.90;99.90;;;;;;5072610;28;20234;-82
2023/11/04 04:56:59;;;;;;;0.50;0.40;;;8.90;99.90;;;;;;5072746;28;20210;-82
2023/11/04 04:59:26;;;;;;;0.50;0.40;;;8.90;99.90;;;;;;5071983;28;20249;-82
2023/11/04 05:01:53;;;;;;;0.95;0.85;;;8.70;99.90;;;;;;5072462;28;20565;-82
2023/11/04 05:04:20;;;;;;;0.50;0.50;;;8.70;99.90;;;;;;5072057;28;20199;-82
2023/11/04 05:06:47;;;;;;;0.68;0.50;;;8.70;99.90;;;;;;5072749;28;20187;-82
2023/11/04 05:09:13;;;;;;;0.50;0.40;;;8.70;99.90;;;;;;5072169;28;20276;-81
2023/11/04 05:11:40;;;;;;;0.50;0.40;;;8.80;99.90;;;;;;5072471;28;20199;-83
2023/11/04 05:14:08;;;;;;;0.50;0.40;;;8.80;99.90;;;;;;5072458;28;20205;-82
2023/11/04 05:16:38;;;;;;;0.50;0.40;;;8.90;99.90;;;;;;5072161;28;20221;-82
2023/11/04 05:19:05;;;;;;;0.50;0.40;;;8.90;99.90;;;;;;5072306;28;20223;-83
2023/11/04 05:21:32;;;;;;;0.50;0.40;;;8.90;99.90;;;;;;5072240;28;20670;-82
2023/11/04 05:23:58;;;;;;;0.50;0.45;;;8.80;99.90;;;;;;5072610;28;20204;-82
2023/11/04 05:26:25;;;;;;;0.50;0.45;;;8.80;99.90;;;;;;5071965;28;20209;-82
2023/11/04 05:28:52;;;;;;;2.45;2.25;;;8.90;99.90;;;;;;5072063;28;20215;-82
2023/11/04 05:31:20;;;;;;;0.70;0.60;;;8.90;99.90;;;;;;5072521;28;20199;-83
2023/11/04 05:33:47;;;;;;;0.50;0.50;;;8.90;99.90;;;;;;5075695;28;20650;-82
2023/11/04 05:36:18;;;;;;;0.80;0.50;;;8.80;99.90;;;;;;5073623;28;20245;-83
2023/11/04 05:38:47;;;;;;;0.60;0.40;;;8.80;99.90;;;;;;5073482;28;20260;-82
2023/11/04 05:41:14;;;;;;;0.50;0.40;;;8.80;99.90;;;;;;5073011;28;20650;-83
2023/11/04 05:43:41;;;;;;;0.50;0.40;;;8.70;99.90;;;;;;5072481;28;20194;-83
2023/11/04 05:46:08;;;;;;;0.50;0.40;;;8.70;99.90;;;;;;5072887;28;20201;-83
2023/11/04 05:48:38;;;;;;;0.70;0.60;;;8.70;99.90;;;;;;5073280;28;20352;-83
2023/11/04 05:51:06;;;;;;;0.50;0.40;;;8.70;99.90;;;;;;5073099;28;20293;-83
2023/11/04 05:53:32;;;;;;;0.80;0.80;;;8.70;99.90;;;;;;5073287;28;20256;-83
2023/11/04 05:55:59;;;;;;;0.50;0.40;;;8.70;99.90;;;;;;5075503;28;20198;-83
2023/11/04 05:58:26;;;;;;;0.70;0.60;;;8.70;99.90;;;;;;5076493;28;20709;-83
2023/11/04 06:00:53;;;;;;;1.35;1.25;;;8.70;99.90;;;;;;5076854;28;20198;-83
2023/11/04 06:03:19;;;;;;;0.50;0.40;;;8.70;99.90;;;;;;5076632;28;20225;-82
2023/11/04 06:05:51;;;;;;;0.50;0.40;;;8.70;99.90;;;;;;5076946;28;20589;-84
2023/11/04 06:08:19;;;;;;;0.50;0.40;;;8.80;99.90;;;;;;5076563;28;20269;-84
2023/11/04 06:10:46;;;;;;;0.50;0.40;;;8.80;99.90;;;;;;5068783;28;20198;-82
2023/11/04 06:13:12;;;;;;;0.50;0.50;;;8.80;99.90;;;;;;5075861;28;20684;-83
2023/11/04 06:15:39;;;;;;;0.50;0.40;;;8.90;99.90;;;;;;5075784;28;20910;-83
2023/11/04 06:18:06;;;;;;;3.33;0.70;;;8.80;99.90;;;;;;5075670;28;20238;-83
2023/11/04 06:20:33;;;;;;;0.93;0.70;;;8.80;99.90;;;;;;5075881;28;20208;-83
2023/11/04 06:23:01;;;;;;;0.50;0.40;;;8.80;99.90;;;;;;5075762;28;20198;-83
2023/11/04 06:25:28;;;;;;;0.50;0.50;;;8.80;99.90;;;;;;5075549;28;20203;-83
2023/11/04 06:27:55;;;;;;;0.50;0.40;;;8.80;99.90;;;;;;5074680;28;20657;-82
2023/11/04 06:30:22;;;;;;;0.50;0.47;;;8.80;99.90;;;;;;5077310;28;20198;-81
2023/11/04 06:32:48;;;;;;;0.50;0.50;;;8.80;99.90;;;;;;5078324;28;20194;-83
2023/11/04 06:35:15;;;;;;;0.50;0.50;;;8.90;99.90;;;;;;5076031;28;20203;-84
2023/11/04 06:37:42;;;;;;;0.50;0.40;;;8.80;99.90;;;;;;5075516;28;20222;-83
2023/11/04 06:40:11;;;;;;;0.60;0.50;;;8.80;99.90;;;;;;5075783;28;20202;-83
2023/11/04 06:42:38;;;;;;;0.50;0.40;;;8.70;99.90;;;;;;5075324;28;20202;-84
2023/11/04 06:45:05;;;;;;;0.50;0.40;;;8.70;99.90;;;;;;5075863;28;20299;-83
2023/11/04 06:47:32;;;;;;;0.50;0.45;;;8.70;99.90;;;;;;5075473;28;20190;-85
2023/11/04 06:49:59;;;;;;;0.50;0.40;;;8.60;99.90;;;;;;5075646;28;20213;-83
2023/11/04 06:52:26;;;;;;;0.50;0.40;;;8.60;99.90;;;;;;5075205;28;20202;-84
2023/11/04 06:54:53;;;;;;;0.50;0.40;;;8.60;99.90;;;;;;5074709;28;20197;-83
2023/11/04 06:57:21;;;;;;;0.50;0.40;;;8.50;99.90;;;;;;5074868;28;20222;-84
2023/11/04 06:59:48;;;;;;;0.50;0.40;;;8.50;99.90;;;;;;5085040;28;20305;-83
2023/11/04 07:02:15;;;;;;;0.88;0.88;;;8.50;99.90;;;;;;5084117;28;20288;-85
2023/11/04 07:04:41;;;;;;;1.33;0.40;;;8.50;99.90;;;;;;5077178;28;20201;-84
2023/11/04 07:07:09;;;;;;;0.80;0.70;;;8.50;99.90;;;;;;5076500;28;20573;-84
2023/11/04 07:09:36;;;;;;;0.60;0.50;;;8.50;99.90;;;;;;5077586;28;20700;-83
2023/11/04 07:12:04;;;;;;;0.60;0.50;;;8.50;99.90;;;;;;5077147;28;20199;-84
2023/11/04 07:14:32;;;;;;;0.75;0.70;;;8.50;99.90;;;;;;5076665;28;20198;-83
2023/11/04 07:16:59;;;;;;;0.50;0.40;;;8.70;99.90;;;;;;5076589;28;20378;-85
2023/11/04 07:19:26;;;;;;;0.50;0.40;;;8.80;99.90;;;;;;5076539;28;20218;-83
2023/11/04 07:21:53;;;;;;;0.60;0.50;;;9.00;99.90;;;;;;5076343;28;20281;-84
2023/11/04 07:24:20;;;;;;;0.60;0.50;;;9.30;99.90;;;;;;5076643;28;20209;-85
2023/11/04 07:26:46;;;;;;;0.50;0.40;;;9.40;99.90;;;;;;5077067;28;20191;-83
2023/11/04 07:29:13;;;;;;;0.50;0.40;;;9.70;99.90;;;;;;5076531;28;20218;-84
2023/11/04 07:31:41;;;;;;;0.60;0.55;;;9.70;99.90;;;;;;5076103;28;20212;-83
2023/11/04 07:34:08;;;;;;;0.60;0.43;;;9.70;99.90;;;;;;5076219;28;20198;-85
2023/11/04 07:36:35;;;;;;;0.60;0.40;;;10.20;99.90;;;;;;5075213;28;20560;-83
2023/11/04 07:39:03;;;;;;;1.67;0.43;;;10.20;99.90;;;;;;5076333;28;20214;-85
2023/11/04 07:41:29;;;;;;;0.50;0.40;;;10.20;99.90;;;;;;5075578;28;20562;-85
2023/11/04 07:43:56;;;;;;;0.50;0.40;;;10.70;99.90;;;;;;5074771;28;20441;-83
2023/11/04 07:46:23;;;;;;;0.50;0.40;;;11.30;99.90;;;;;;5074478;28;20200;-82
2023/11/04 07:48:52;;;;;;;0.50;0.40;;;12.10;99.90;;;;;;5074916;28;20452;-84
2023/11/04 07:51:18;;;;;;;0.50;0.40;;;12.10;99.90;;;;;;5074410;28;20490;-84
2023/11/04 07:53:45;;;;;;;0.60;0.60;;;11.70;99.90;;;;;;5077662;28;20811;-84
2023/11/04 07:56:12;;;;;;;0.50;0.40;;;11.20;99.90;;;;;;5078623;28;20205;-84
2023/11/04 07:58:39;;;;;;;0.50;0.40;;;10.90;99.90;;;;;;5077812;28;20484;-84
2023/11/04 08:01:06;;;;;;;0.50;0.47;;;10.60;99.90;;;;;;5076176;28;20445;-85
2023/11/04 08:03:33;;;;;;;0.90;0.50;;;10.30;99.90;;;;;;5074492;28;20206;-83
2023/11/04 08:06:01;;;;;;;0.50;0.50;;;10.20;99.90;;;;;;5073991;28;20203;-83
2023/11/04 08:08:28;;;;;;;0.50;0.40;;;10.10;99.90;;;;;;5073670;28;20593;-83
2023/11/04 08:10:55;;;;;;;0.50;0.40;;;10.20;99.90;;;;;;5065392;28;20638;-82
2023/11/04 08:13:22;;;;;;;0.50;0.40;;;10.10;99.90;;;;;;5073596;28;20206;-84
2023/11/04 08:15:49;;;;;;;0.50;0.40;;;10.00;99.90;;;;;;5073140;28;20653;-84
2023/11/04 08:18:16;;;;;;;0.50;0.40;;;10.00;99.90;;;;;;5072836;28;20589;-83
2023/11/04 08:20:43;;;;;;;0.50;0.50;;;10.10;99.90;;;;;;5073252;28;20682;-83
2023/11/04 08:23:11;;;;;;;0.50;0.45;;;10.10;99.90;;;;;;5074234;28;20198;-83
2023/11/04 08:25:38;;;;;;;0.50;0.40;;;10.10;99.90;;;;;;5074524;28;20236;-83
2023/11/04 08:28:04;;;;;;;0.50;0.40;;;10.00;99.90;;;;;;5074653;28;20210;-84
2023/11/04 08:30:31;;;;;;;3.23;0.53;;;10.00;99.90;;;;;;5075357;28;20224;-85
2023/11/04 08:32:58;;;;;;;0.70;0.70;;;10.00;99.90;;;;;;5075120;28;20445;-84
2023/11/04 08:35:24;;;;;;;0.60;0.50;;;9.90;99.90;;;;;;5074627;28;20670;-83
2023/11/04 08:37:52;;;;;;;0.50;0.40;;;9.80;99.90;;;;;;5073962;28;20215;-85
2023/11/04 08:40:20;;;;;;;0.50;0.40;;;9.80;99.90;;;;;;5074402;28;20203;-84
2023/11/04 08:42:46;;;;;;;0.70;0.50;;;9.80;99.90;;;;;;5073769;28;20208;-81
2023/11/04 08:45:14;;;;;;;0.50;0.40;;;9.70;99.90;;;;;;5074226;28;20198;-84
2023/11/04 08:47:41;;;;;;;1.50;0.60;;;9.70;99.90;;;;;;5077025;28;20681;-83
2023/11/04 08:50:09;;;;;;;0.50;0.40;;;9.80;99.90;;;;;;5076706;28;20206;-85
2023/11/04 08:52:35;;;;;;;0.50;0.40;;;9.80;99.90;;;;;;5075861;28;20199;-83
2023/11/04 08:55:04;;;;;;;0.50;0.40;;;9.80;99.90;;;;;;5075825;28;20202;-84
2023/11/04 08:57:33;;;;;;;0.50;0.40;;;9.80;99.90;;;;;;5076633;28;20236;-83
2023/11/04 09:00:00;;;;;;;0.80;0.68;;;9.80;99.90;;;;;;5066735;28;20246;-84
2023/11/04 09:02:27;;;;;;;0.60;0.40;;;9.90;99.90;;;;;;5075214;28;20209;-84
2023/11/04 09:04:54;;;;;;;0.70;0.70;;;10.00;99.90;;;;;;5076696;28;20199;-84
2023/11/04 09:07:20;;;;;;;0.60;0.50;;;10.10;99.90;;;;;;5076437;28;20197;-83
2023/11/04 09:09:47;;;;;;;0.50;0.50;;;10.10;99.90;;;;;;5075431;28;20220;-84
2023/11/04 09:12:15;;;;;;;0.50;0.40;;;10.40;99.90;;;;;;5074783;28;20224;-83
2023/11/04 09:14:43;;;;;;;0.60;0.43;;;10.50;99.90;;;;;;5073287;28;20201;-84
2023/11/04 09:17:10;;;;;;;0.50;0.50;;;10.60;99.90;;;;;;5074981;28;20577;-84
2023/11/04 09:19:37;;;;;;;0.50;0.40;;;10.70;99.90;;;;;;5074578;28;20685;-83
2023/11/04 09:22:04;;;;;;;0.60;0.60;;;10.70;99.90;;;;;;5073213;28;20448;-85
2023/11/04 09:24:31;;;;;;;2.45;0.70;;;10.90;99.90;;;;;;5073793;28;20206;-84
2023/11/04 09:26:58;;;;;;;0.70;0.53;;;10.80;99.90;;;;;;5073070;28;20194;-83
2023/11/04 09:29:25;;;;;;;0.60;0.60;;;10.80;99.90;;;;;;5073896;28;20480;-83
2023/11/04 09:31:54;;;;;;;0.57;0.52;;;10.90;99.90;;;;;;5077910;28;20199;-83
2023/11/04 09:34:20;;;;;;;0.50;0.50;;;10.90;99.90;;;;;;5078786;28;20199;-84
2023/11/04 09:36:47;;;;;;;0.70;0.60;;;11.00;99.90;;;;;;5080461;28;20198;-84
2023/11/04 09:39:16;;;;;;;0.50;0.40;;;10.90;99.90;;;;;;5073433;28;20221;-83
2023/11/04 09:41:42;;;;;;;2.17;0.70;;;10.90;99.90;;;;;;5073486;28;20988;-84
2023/11/04 09:44:10;;;;;;;0.50;0.50;;;10.90;99.90;;;;;;5073436;28;20661;-84
2023/11/04 09:46:37;;;;;;;0.50;0.50;;;10.80;99.90;;;;;;5073404;28;20202;-83
2023/11/04 09:49:05;;;;;;;0.70;0.63;;;10.80;99.90;;;;;;5066151;28;20215;-82
2023/11/04 09:51:33;;;;;;;2.00;1.10;;;10.70;99.90;;;;;;5073940;28;20198;-83
2023/11/04 09:54:01;;;;;;;3.10;1.35;;;10.50;99.90;;;;;;5073403;28;20198;-83
2023/11/04 09:56:28;;;;;;;0.63;0.60;;;10.50;99.90;;;;;;5073849;28;20205;-83
2023/11/04 09:58:55;;;;;;;1.15;1.05;;;10.40;99.90;;;;;;5073259;28;20222;-84
2023/11/04 10:01:23;;;;;;;0.70;0.70;;;10.50;99.90;;;;;;5072944;28;20285;-84
2023/11/04 10:03:51;;;;;;;1.63;0.50;;;10.60;99.90;;;;;;5073963;28;20629;-83
2023/11/04 10:06:19;;;;;;;0.50;0.40;;;10.70;99.90;;;;;;5075902;28;20447;-83
2023/11/04 10:08:47;;;;;;;1.03;0.60;;;10.70;99.90;;;;;;5074821;28;20513;-83
2023/11/04 10:11:13;;;;;;;1.55;0.50;;;10.80;99.90;;;;;;5074678;28;20433;-83
2023/11/04 10:13:40;;;;;;;0.50;0.40;;;11.00;99.90;;;;;;5074053;28;20195;-85
2023/11/04 10:16:08;;;;;;;0.50;0.40;;;11.10;99.90;;;;;;5066982;28;20445;-84
2023/11/04 10:18:36;;;;;;;0.80;0.60;;;11.40;99.90;;;;;;5077267;28;20480;-86
2023/11/04 10:21:03;;;;;;;0.60;0.60;;;11.60;99.90;;;;;;5076189;28;20440;-84
2023/11/04 10:23:31;;;;;;;0.50;0.50;;;11.70;99.90;;;;;;5075252;28;20441;-84
2023/11/04 10:26:03;;;;;;;0.50;0.40;;;11.80;99.90;;;;;;5074786;28;20441;-83
2023/11/04 10:28:30;;;;;;;3.57;0.67;;;11.90;99.90;;;;;;5076568;28;20820;-84
2023/11/04 10:31:04;;;;;;;5.90;0.63;;;11.80;99.90;;;;;;5074467;28;20777;-83
2023/11/04 10:33:35;;;;;;;0.60;0.53;;;11.70;99.90;;;;;;5073989;28;20441;-83
2023/11/04 10:36:05;;;;;;;0.80;0.80;;;11.70;99.90;;;;;;5074833;28;20443;-83
2023/11/04 10:38:35;;;;;;;0.83;0.60;;;11.80;99.90;;;;;;5074683;28;20476;-83
2023/11/04 10:41:04;;;;;;;0.60;0.57;;;11.90;99.90;;;;;;5074614;28;20559;-85
2023/11/04 10:43:40;;;;;;;0.60;0.60;;;12.10;99.90;;;;;;5077776;28;20439;-83
2023/11/04 10:46:11;;;;;;;1.73;0.73;;;12.00;99.90;;;;;;5078316;28;20439;-83
2023/11/04 10:48:44;;;;;;;0.50;0.40;;;11.80;99.90;;;;;;5078304;28;20480;-84
2023/11/04 10:51:17;;;;;;;0.50;0.50;;;11.60;99.90;;;;;;5070481;28;20423;-85
2023/11/04 10:53:57;;;;;;;0.60;0.50;;;11.60;99.90;;;;;;5077973;28;20456;-84
2023/11/04 10:56:32;;;;;;;0.70;0.57;;;11.50;99.90;;;;;;5078298;28;20447;-85
2023/11/04 10:59:07;;;;;;;0.50;0.50;;;11.50;99.90;;;;;;5080923;28;20499;-83
2023/11/04 11:01:35;;;;;;;0.60;0.60;;;11.50;99.90;;;;;;5080347;28;20796;-84
2023/11/04 11:04:04;;;;;;;1.03;0.87;;;11.40;99.90;;;;;;5078233;28;20452;-85
2023/11/04 11:06:31;;;;;;;0.60;0.50;;;11.30;99.90;;;;;;5079202;28;20994;-84
2023/11/04 11:09:00;;;;;;;0.50;0.40;;;11.20;99.90;;;;;;5078778;28;20968;-85
2023/11/04 11:11:35;;;;;;;0.50;0.40;;;11.20;99.90;;;;;;5078657;28;20424;-84
2023/11/04 11:14:04;;;;;;;0.93;0.70;;;11.20;99.90;;;;;;5077278;28;20436;-85
2023/11/04 11:16:31;;;;;;;0.50;0.50;;;11.10;99.90;;;;;;5077883;28;20531;-84
2023/11/04 11:19:07;;;;;;;2.67;0.90;;;10.90;99.90;;;;;;5079512;28;20483;-86
2023/11/04 11:21:34;;;;;;;0.50;0.40;;;10.80;99.90;;;;;;5078653;28;20506;-85
2023/11/04 11:24:09;;;;;;;0.70;0.70;;;10.80;99.90;;;;;;5077639;28;20436;-86
2023/11/04 11:26:46;;;;;;;0.50;0.40;;;10.80;99.90;;;;;;5079078;28;20468;-84
2023/11/04 11:29:19;;;;;;;0.80;0.55;;;10.80;99.90;;;;;;5077295;28;20502;-85
2023/11/04 11:31:47;;;;;;;6.63;0.70;;;10.80;99.90;;;;;;5077547;28;20285;-83
2023/11/04 11:34:14;;;;;;;1.13;0.60;;;10.80;99.90;;;;;;5077792;28;20194;-85
2023/11/04 11:36:43;;;;;;;1.40;1.13;;;10.80;99.90;;;;;;5078377;28;20487;-84
2023/11/04 11:39:16;;;;;;;0.50;0.40;;;10.70;99.90;;;;;;5077005;28;20705;-84
2023/11/04 11:41:43;;;;;;;0.50;0.40;;;10.70;99.90;;;;;;5077762;28;21047;-84
2023/11/04 11:44:11;;;;;;;0.50;0.40;;;10.70;99.90;;;;;;5078064;28;20438;-84
2023/11/04 11:46:39;;;;;;;0.50;0.40;;;10.80;99.90;;;;;;5079858;28;20433;-84
2023/11/04 11:49:07;;;;;;;1.17;0.70;;;10.80;99.90;;;;;;5076415;28;20471;-82
2023/11/04 11:51:36;;;;;;;0.97;0.50;;;10.60;99.90;;;;;;5079429;28;20551;-84
2023/11/04 11:54:03;;;;;;;0.60;0.60;;;10.40;99.90;;;;;;5077692;28;20443;-83
2023/11/04 11:56:31;;;;;;;0.50;0.40;;;10.30;99.90;;;;;;5076839;28;20441;-84
2023/11/04 11:59:02;;;;;;;1.43;0.70;;;10.20;99.90;;;;;;5075518;28;21018;-84
2023/11/04 12:01:30;;;;;;;1.47;0.80;;;10.10;99.90;;;;;;5077669;28;20429;-84
2023/11/04 12:03:59;;;;;;;0.60;0.40;;;9.90;99.90;;;;;;5077715;28;20444;-84
2023/11/04 12:06:27;;;;;;;0.60;0.57;;;9.80;99.90;;;;;;5078193;28;20396;-84
2023/11/04 12:08:55;;;;;;;0.50;0.50;;;9.70;99.90;;;;;;5077380;28;20297;-84
2023/11/04 12:11:22;;;;;;;0.60;0.50;;;9.70;99.90;;;;;;5078338;28;20439;-84
2023/11/04 12:13:51;;;;;;;0.50;0.40;;;9.70;99.90;;;;;;5077402;28;20437;-82
2023/11/04 12:16:17;;;;;;;0.67;0.50;;;9.70;99.90;;;;;;5077112;28;20441;-85
2023/11/04 12:18:47;;;;;;;1.17;0.90;;;9.80;99.90;;;;;;5077952;28;20484;-83
2023/11/04 12:21:14;;;;;;;0.70;0.70;;;9.90;99.90;;;;;;5077685;28;20440;-83
2023/11/04 12:23:41;;;;;;;0.80;0.80;;;10.10;99.90;;;;;;5076171;28;20194;-84
2023/11/04 12:26:08;;;;;;;0.60;0.50;;;10.20;99.90;;;;;;5075423;28;20194;-85
2023/11/04 12:28:37;;;;;;;0.65;0.50;;;10.30;99.90;;;;;;5066299;28;20203;-84
2023/11/04 12:31:06;;;;;;;0.50;0.40;;;10.30;99.90;;;;;;5074503;28;20198;-84
2023/11/04 12:33:35;;;;;;;0.83;0.80;;;10.10;99.90;;;;;;5075779;28;20646;-84
2023/11/04 12:36:03;;;;;;;0.50;0.47;;;10.00;99.90;;;;;;5075781;28;20444;-85
2023/11/04 12:38:31;;;;;;;0.50;0.50;;;10.00;99.90;;;;;;5075605;28;20219;-84
2023/11/04 12:40:58;;;;;;;0.60;0.55;;;9.90;99.90;;;;;;5076460;28;20193;-84
2023/11/04 12:43:25;;;;;;;0.80;0.80;;;9.80;99.90;;;;;;5076982;28;20197;-84
2023/11/04 12:45:54;;;;;;;1.40;0.98;;;9.70;99.90;;;;;;5076773;28;20247;-84
2023/11/04 12:48:22;;;;;;;0.95;0.70;;;9.60;99.90;;;;;;5068108;28;20744;-84
2023/11/04 12:50:49;;;;;;;0.60;0.50;;;9.50;99.90;;;;;;5077453;28;20222;-84
2023/11/04 12:53:18;;;;;;;0.52;0.45;;;9.40;99.90;;;;;;5076961;28;20202;-84
2023/11/04 12:55:44;;;;;;;1.52;0.90;;;9.30;99.90;;;;;;5078075;28;20190;-85